Time;durP1;ratioP1;P1;durP2;ratioP2;P2;SDS_P1;SDS_P2;PMS_P1;PMS_P2;Temp;Humidity;BMP_temperature;BMP_pressure;BME280_temperature;BME280_humidity;BME280_pressure;Samples;Min_cycle;Max_cycle;Signal;HPM_P1;HPM_P2
2021/12/06 00:01:24;;;;;;;42.95;17.52;;;;;;;-3.25;100.00;99878.75;4879287;29;20136;-72
2021/12/06 00:03:57;;;;;;;47.97;19.13;;;;;;;-3.26;100.00;99877.84;4876553;29;20441;-68
2021/12/06 00:06:26;;;;;;;49.42;18.67;;;;;;;-3.25;100.00;99879.59;4896921;29;20099;-68
2021/12/06 00:08:52;;;;;;;43.63;18.67;;;;;;;-3.30;100.00;99878.88;4912847;29;20527;-70
2021/12/06 00:11:19;;;;;;;42.75;15.38;;;;;;;-3.21;100.00;99888.28;4899666;29;20051;-70
2021/12/06 00:14:01;;;;;;;42.97;15.35;;;;;;;-3.26;100.00;99883.13;4901950;29;20128;-70
2021/12/06 00:16:28;;;;;;;40.85;15.32;;;;;;;-3.24;100.00;99873.38;4896589;29;20067;-70
2021/12/06 00:18:54;;;;;;;40.03;16.45;;;;;;;-3.38;100.00;99865.13;4877361;29;20070;-70
2021/12/06 00:21:21;;;;;;;36.15;12.80;;;;;;;-3.32;100.00;99864.88;4862288;29;20069;-70
2021/12/06 00:23:47;;;;;;;40.70;15.82;;;;;;;-3.28;100.00;99882.34;4862328;29;20065;-69
2021/12/06 00:26:13;;;;;;;38.83;14.10;;;;;;;-3.21;100.00;99878.56;4862100;29;20068;-71
2021/12/06 00:28:42;;;;;;;42.65;15.93;;;;;;;-3.22;100.00;99874.19;4880175;29;20065;-69
2021/12/06 00:31:08;;;;;;;38.28;13.63;;;;;;;-3.35;100.00;99859.72;4912090;29;20128;-69
2021/12/06 00:33:34;;;;;;;44.13;15.25;;;;;;;-3.25;100.00;99871.66;4912015;29;20061;-68
2021/12/06 00:36:04;;;;;;;39.55;15.18;;;;;;;-3.25;100.00;99874.31;4896690;29;20537;-69
2021/12/06 00:38:32;;;;;;;37.03;15.63;;;;;;;-3.24;100.00;99878.66;4895484;29;20230;-69
2021/12/06 00:40:58;;;;;;;38.28;15.30;;;;;;;-3.27;100.00;99880.56;4880518;29;20056;-69
2021/12/06 00:43:24;;;;;;;37.55;14.23;;;;;;;-3.41;100.00;99852.88;4880138;29;20069;-68
2021/12/06 00:45:49;;;;;;;36.45;13.05;;;;;;;-3.27;100.00;99873.50;4864392;29;20061;-69
2021/12/06 00:48:16;;;;;;;36.30;14.85;;;;;;;-3.25;100.00;99879.59;4879902;29;20069;-68
2021/12/06 00:50:44;;;;;;;35.75;12.73;;;;;;;-3.26;100.00;99875.19;4895111;29;20106;-68
2021/12/06 00:53:10;;;;;;;34.92;12.30;;;;;;;-3.23;100.00;99880.38;4896056;29;20088;-69
2021/12/06 00:55:37;;;;;;;36.65;15.05;;;;;;;-3.24;100.00;99868.09;4895999;29;20060;-70
2021/12/06 00:58:03;;;;;;;38.25;13.20;;;;;;;-3.25;100.00;99876.94;4895542;29;20128;-69
2021/12/06 01:00:34;;;;;;;32.88;11.30;;;;;;;-3.20;100.00;99871.47;4894519;29;20048;-68
2021/12/06 01:03:01;;;;;;;35.65;14.68;;;;;;;-3.20;100.00;99859.13;4895662;29;20192;-70
2021/12/06 01:05:27;;;;;;;35.83;13.02;;;;;;;-3.18;100.00;99861.69;4880084;29;20139;-70
2021/12/06 01:07:54;;;;;;;41.28;15.20;;;;;;;-3.43;100.00;99822.16;4895565;29;20088;-68
2021/12/06 01:10:22;;;;;;;33.35;12.60;;;;;;;-3.25;100.00;99845.22;4891307;29;20502;-69
2021/12/06 01:12:47;;;;;;;33.33;15.02;;;;;;;-3.20;100.00;99869.69;4891739;29;20408;-69
2021/12/06 01:15:14;;;;;;;39.58;13.30;;;;;;;-3.28;100.00;99852.41;4876615;29;20109;-69
2021/12/06 01:17:40;;;;;;;30.35;11.82;;;;;;;-3.40;100.00;99822.00;4891941;29;20053;-69
2021/12/06 01:20:10;;;;;;;31.13;12.20;;;;;;;-3.19;100.00;99860.84;4891068;29;20072;-69
2021/12/06 01:22:45;;;;;;;;;;;;;;;-3.20;100.00;99872.34;4876785;29;20097;-69
2021/12/06 01:25:40;;;;;;;35.95;12.68;;;;;;;-3.29;100.00;99859.50;4876649;29;19979;-69
2021/12/06 01:28:58;;;;;;;28.70;10.20;;;;;;;-3.21;100.00;99867.97;4880606;29;20148;-69
2021/12/06 01:31:18;;;;;;;30.67;11.77;;;;;;;-3.19;100.00;99879.34;4890047;29;20578;-68
2021/12/06 01:39:12;;;;;;;32.45;12.40;;;;;;;-3.38;100.00;99857.19;4895253;29;20151;-68
2021/12/06 01:41:48;;;;;;;30.58;12.27;;;;;;;-3.29;100.00;99879.75;4895665;29;20147;-69
2021/12/06 01:44:32;;;;;;;31.85;11.05;;;;;;;-3.32;100.00;99885.19;4880720;29;20056;-69
2021/12/06 01:47:23;;;;;;;34.05;14.57;;;;;;;-3.34;100.00;99887.00;4896309;29;20056;-69
2021/12/06 01:49:52;;;;;;;30.67;11.68;;;;;;;-3.32;100.00;99893.97;4896553;29;20052;-69
2021/12/06 01:52:30;;;;;;;30.73;12.10;;;;;;;-3.46;100.00;99861.91;4864287;29;20515;-68
2021/12/06 01:54:58;;;;;;;36.20;14.55;;;;;;;-3.29;100.00;99893.84;4894689;29;20053;-68
2021/12/06 01:57:25;;;;;;;34.58;13.75;;;;;;;-3.42;100.00;99874.09;4879306;29;20056;-68
2021/12/06 01:59:53;;;;;;;41.15;15.48;;;;;;;-3.45;100.00;99863.63;4879127;29;20557;-69
2021/12/06 02:02:21;;;;;;;36.28;15.27;;;;;;;-3.29;100.00;99896.50;4895039;29;20059;-67
2021/12/06 02:04:47;;;;;;;34.70;14.60;;;;;;;-3.33;100.00;99889.56;4894773;29;20080;-69
2021/12/06 02:07:17;;;;;;;39.78;14.57;;;;;;;-3.33;100.00;99894.00;4879119;29;20542;-68
2021/12/06 02:09:46;;;;;;;34.42;12.57;;;;;;;-3.41;100.00;99881.94;4878292;29;20104;-69
2021/12/06 02:12:14;;;;;;;35.75;15.13;;;;;;;-3.32;100.00;99896.59;4878416;29;20126;-69
2021/12/06 02:17:21;;;;;;;34.95;12.80;;;;;;;-3.30;100.00;99910.59;4879880;29;20140;-68
2021/12/06 02:19:52;;;;;;;35.83;13.23;;;;;;;-3.33;100.00;99900.16;4894938;29;20053;-70
2021/12/06 02:22:22;;;;;;;37.38;13.98;;;;;;;-3.30;100.00;99910.59;4878913;29;20127;-69
2021/12/06 02:24:48;;;;;;;34.10;13.52;;;;;;;-3.34;100.00;99893.16;4894078;29;20052;-68
2021/12/06 02:27:14;;;;;;;36.55;14.70;;;;;;;-3.43;100.00;99888.22;4878279;29;20068;-69
2021/12/06 02:29:43;;;;;;;34.28;13.82;;;;;;;-3.35;100.00;99906.44;4878152;29;20061;-69
2021/12/06 02:32:11;;;;;;;37.83;14.77;;;;;;;-3.31;100.00;99911.53;4878776;29;20429;-69
2021/12/06 02:34:43;;;;;;;34.97;15.23;;;;;;;-3.33;100.00;99904.56;4879305;29;20060;-68
2021/12/06 02:37:10;;;;;;;37.20;15.63;;;;;;;-3.34;100.00;99908.16;4896639;29;20067;-72
2021/12/06 02:39:37;;;;;;;44.47;14.82;;;;;;;-3.30;100.00;99905.31;4879620;29;20116;-69
2021/12/06 02:42:06;;;;;;;43.85;14.75;;;;;;;-3.30;100.00;99900.03;4879266;29;20088;-70
2021/12/06 02:44:32;;;;;;;30.00;11.38;;;;;;;-3.51;100.00;99869.13;4894598;29;20116;-71
2021/12/06 02:46:58;;;;;;;37.35;15.57;;;;;;;-3.33;100.00;99899.28;4894099;29;20408;-69
2021/12/06 02:49:24;;;;;;;45.00;14.45;;;;;;;-3.52;100.00;99862.97;4890458;29;20080;-70
2021/12/06 02:51:53;;;;;;;35.67;14.30;;;;;;;-3.48;100.00;99885.72;4875371;29;20403;-70
2021/12/06 02:54:24;;;;;;;35.45;15.25;;;;;;;-3.34;100.00;99916.06;4860949;29;20578;-70
2021/12/06 02:59:35;;;;;;;39.80;15.70;;;;;;;-3.45;100.00;99925.25;4906507;29;20482;-68
2021/12/06 03:02:10;;;;;;;37.88;16.13;;;;;;;-3.47;100.00;99923.63;4894251;29;20104;-70
2021/12/06 03:04:38;;;;;;;41.17;15.15;;;;;;;-3.61;100.00;99902.97;4910002;29;20088;-69
2021/12/06 03:07:05;;;;;;;37.58;16.13;;;;;;;-3.48;100.00;99927.16;4894173;29;20067;-69
2021/12/06 03:09:34;;;;;;;40.40;14.35;;;;;;;-3.45;100.00;99941.13;4893049;29;20049;-70
2021/12/06 03:12:14;;;;;;;38.40;15.27;;;;;;;-3.44;100.00;99945.50;4894252;29;20060;-69
2021/12/06 03:14:46;;;;;;;42.20;15.32;;;;;;;-3.49;100.00;99942.16;4878329;29;20089;-70
2021/12/06 03:17:16;;;;;;;40.13;14.05;;;;;;;-3.49;100.00;99936.00;4879095;29;20052;-70
2021/12/06 03:19:43;;;;;;;35.67;15.52;;;;;;;-3.50;100.00;99934.28;4874606;29;20080;-68
2021/12/06 03:22:10;;;;;;;31.98;13.95;;;;;;;-3.50;100.00;99943.06;4890871;29;20061;-71
2021/12/06 03:24:37;;;;;;;34.58;14.82;;;;;;;-3.49;100.00;99951.84;4875170;29;20595;-68
2021/12/06 03:27:04;;;;;;;32.78;12.65;;;;;;;-3.68;100.00;99926.09;4874725;29;20519;-67
2021/12/06 03:29:31;;;;;;;34.40;14.18;;;;;;;-3.71;100.00;99909.50;4904640;29;20071;-70
2021/12/06 03:31:57;;;;;;;38.70;14.52;;;;;;;-3.45;100.00;99950.81;4879189;29;20140;-66
2021/12/06 03:34:26;;;;;;;35.00;14.80;;;;;;;-3.46;100.00;99957.91;4879510;29;20573;-65
2021/12/06 03:36:55;;;;;;;32.58;14.32;;;;;;;-3.52;100.00;99952.81;4889858;29;20409;-66
2021/12/06 03:39:24;;;;;;;35.38;12.98;;;;;;;-3.45;100.00;99948.19;4902454;29;20070;-63
2021/12/06 03:41:54;;;;;;;30.05;12.82;;;;;;;-3.50;100.00;99944.84;4915336;29;20056;-65
2021/12/06 03:44:20;;;;;;;32.00;12.65;;;;;;;-3.54;100.00;99944.09;4862565;29;20460;-68
2021/12/06 03:46:50;;;;;;;31.55;13.00;;;;;;;-3.52;100.00;99957.25;4862602;29;20053;-69
2021/12/06 03:49:17;;;;;;;31.65;12.70;;;;;;;-3.51;100.00;99953.69;4888426;29;20065;-66
2021/12/06 03:51:45;;;;;;;33.30;12.38;;;;;;;-3.71;100.00;99926.22;4896730;29;20063;-61
2021/12/06 03:54:17;;;;;;;29.70;12.73;;;;;;;-3.56;100.00;99963.56;4881851;29;20107;-64
2021/12/06 03:56:44;;;;;;;25.85;9.93;;;;;;;-3.58;100.00;99968.03;4881426;29;20199;-65
2021/12/06 03:59:10;;;;;;;35.83;13.73;;;;;;;-3.65;100.00;99956.84;4883144;29;20076;-64
2021/12/06 04:01:36;;;;;;;29.60;12.02;;;;;;;-3.61;100.00;99969.03;4898644;29;20147;-65
2021/12/06 04:04:04;;;;;;;27.45;11.82;;;;;;;-3.65;100.00;99968.25;4906856;29;20139;-66
2021/12/06 04:06:32;;;;;;;26.63;12.63;;;;;;;-3.84;100.00;99947.81;4894854;29;20056;-64
2021/12/06 04:08:58;;;;;;;26.25;14.50;;;;;;;-3.73;100.00;99970.31;4908365;29;20564;-64
2021/12/06 04:11:25;;;;;;;28.35;12.25;;;;;;;-3.75;100.00;99977.44;4868599;29;20194;-69
2021/12/06 04:13:52;;;;;;;28.30;12.05;;;;;;;-3.75;100.00;99980.06;4868346;29;20156;-63
2021/12/06 04:16:18;;;;;;;31.48;11.68;;;;;;;-3.73;100.00;99988.81;4909299;29;20376;-65
2021/12/06 04:18:49;;;;;;;30.98;11.73;;;;;;;-3.71;100.00;99981.69;4892419;29;20068;-67
2021/12/06 04:21:17;;;;;;;26.45;11.82;;;;;;;-3.68;100.00;99997.44;4893211;29;20538;-64
2021/12/06 04:23:43;;;;;;;30.15;11.00;;;;;;;-3.67;100.00;99985.94;4894566;29;20061;-64
2021/12/06 04:26:10;;;;;;;28.55;10.77;;;;;;;-3.58;100.00;99987.41;4892985;29;20178;-65
2021/12/06 04:28:43;;;;;;;28.40;10.52;;;;;;;-3.67;100.00;99964.81;4866155;29;20103;-65
2021/12/06 04:31:09;;;;;;;25.20;11.95;;;;;;;-3.63;100.00;99987.56;4895011;29;20040;-65
2021/12/06 04:33:37;;;;;;;25.98;10.80;;;;;;;-3.69;100.00;99987.78;4867158;29;20079;-63
2021/12/06 04:36:04;;;;;;;24.42;9.57;;;;;;;-3.67;100.00;99990.38;4908793;29;20514;-62
2021/12/06 04:38:31;;;;;;;29.63;11.82;;;;;;;-3.70;100.00;99986.03;4893902;29;20079;-64
2021/12/06 04:41:00;;;;;;;27.90;11.07;;;;;;;-3.73;100.00;99987.94;4893327;29;20041;-63
2021/12/06 04:43:27;;;;;;;26.85;9.07;;;;;;;-3.66;100.00;100003.53;4892900;29;20135;-64
2021/12/06 04:45:53;;;;;;;27.63;10.18;;;;;;;-3.68;100.00;100000.06;4893462;29;20111;-65
2021/12/06 04:48:19;;;;;;;28.70;11.85;;;;;;;-3.70;100.00;100006.31;4877483;29;20068;-65
2021/12/06 04:50:45;;;;;;;28.70;11.60;;;;;;;-3.66;100.00;100007.94;4893792;29;20048;-64
2021/12/06 04:53:20;;;;;;;31.13;11.20;;;;;;;-3.65;100.00;99999.97;4893255;29;20057;-64
2021/12/06 04:56:16;;;;;;;34.35;13.57;;;;;;;-3.68;100.00;99997.44;4876398;29;20049;-64
2021/12/06 04:59:26;;;;;;;31.80;11.25;;;;;;;-3.73;100.00;99993.22;4887016;29;20108;-67
2021/12/06 05:01:56;;;;;;;27.17;9.68;;;;;;;-3.58;100.00;100013.84;4790832;29;20501;-68
2021/12/06 05:04:27;;;;;;;28.33;11.45;;;;;;;-3.61;100.00;100013.06;4880851;29;20052;-68
2021/12/06 05:06:58;;;;;;;26.08;10.45;;;;;;;-3.64;100.00;100017.53;4869639;29;20570;-67
2021/12/06 05:09:30;;;;;;;25.35;9.27;;;;;;;-3.80;100.00;99992.59;4877568;29;20107;-66
2021/12/06 05:11:55;;;;;;;24.42;9.38;;;;;;;-3.66;100.00;100011.47;4892566;29;20120;-65
2021/12/06 05:14:24;;;;;;;25.00;10.50;;;;;;;-3.66;100.00;100024.66;4866745;29;20057;-68
2021/12/06 05:16:53;;;;;;;30.52;12.65;;;;;;;-3.67;100.00;100030.84;4891966;29;20070;-65
2021/12/06 05:19:21;;;;;;;26.83;11.55;;;;;;;-3.84;100.00;99998.00;4866580;29;20136;-64
2021/12/06 05:21:47;;;;;;;26.58;10.80;;;;;;;-3.73;100.00;100028.44;4879040;29;20048;-64
2021/12/06 05:24:15;;;;;;;23.95;9.30;;;;;;;-3.76;100.00;100017.13;4908854;29;20643;-65
2021/12/06 05:26:42;;;;;;;26.45;8.98;;;;;;;-3.71;100.00;100026.59;4893580;29;20052;-65
2021/12/06 05:29:18;;;;;;;25.15;10.10;;;;;;;-3.71;100.00;100021.31;4892914;29;20064;-65
2021/12/06 05:31:45;;;;;;;25.45;9.93;;;;;;;-3.71;100.00;100031.88;4907272;29;20068;-65
2021/12/06 05:34:16;;;;;;;21.88;8.95;;;;;;;-3.75;100.00;100034.69;4856557;29;20286;-64
2021/12/06 05:36:44;;;;;;;22.80;9.95;;;;;;;-3.86;100.00;100027.13;4892776;29;20056;-64
2021/12/06 05:39:10;;;;;;;24.08;9.68;;;;;;;-3.85;100.00;100023.53;4893314;29;20068;-65
2021/12/06 05:41:37;;;;;;;23.80;10.43;;;;;;;-3.85;100.00;100012.97;4892993;29;20064;-64
2021/12/06 05:44:03;;;;;;;23.77;9.88;;;;;;;-3.85;100.00;100038.53;4891286;29;20462;-64
2021/12/06 05:46:29;;;;;;;26.70;12.38;;;;;;;-3.95;100.00;100038.84;4892016;29;20059;-62
2021/12/06 05:48:55;;;;;;;23.73;8.18;;;;;;;-3.89;100.00;100038.63;4891581;29;20053;-63
2021/12/06 05:51:21;;;;;;;21.88;8.20;;;;;;;-3.83;100.00;100048.16;4908047;29;20067;-64
2021/12/06 05:53:47;;;;;;;24.58;11.00;;;;;;;-4.02;100.00;100039.97;4863783;29;20048;-64
2021/12/06 05:56:13;;;;;;;20.83;8.55;;;;;;;-4.18;100.00;100026.38;4891955;29;20078;-64
2021/12/06 05:58:39;;;;;;;19.63;7.80;;;;;;;-4.10;100.00;100052.53;4907740;29;20532;-62
2021/12/06 06:01:05;;;;;;;23.73;8.88;;;;;;;-4.07;100.00;100046.31;4907113;29;20116;-65
2021/12/06 06:03:31;;;;;;;24.45;10.65;;;;;;;-4.13;100.00;100052.66;4892162;29;20068;-62
2021/12/06 06:05:57;;;;;;;24.73;8.70;;;;;;;-4.04;100.00;100048.84;4885858;29;20504;-65
2021/12/06 06:08:23;;;;;;;29.48;10.30;;;;;;;-4.18;100.00;100051.91;4903816;29;20553;-64
2021/12/06 06:10:51;;;;;;;31.27;12.25;;;;;;;-4.33;100.00;100048.00;4900945;29;20055;-62
2021/12/06 06:13:17;;;;;;;29.55;12.25;;;;;;;-4.33;100.00;100066.47;4909830;29;20068;-62
2021/12/06 06:15:43;;;;;;;25.98;9.57;;;;;;;-4.37;100.00;100059.56;4910546;29;20068;-62
2021/12/06 06:18:10;;;;;;;28.42;10.07;;;;;;;-4.29;100.00;100069.88;4913314;29;20083;-64
2021/12/06 06:20:40;;;;;;;28.80;9.25;;;;;;;-4.32;100.00;100077.88;4914009;29;20143;-63
2021/12/06 06:23:07;;;;;;;21.80;8.73;;;;;;;-4.36;100.00;100071.84;4913413;29;20070;-64
2021/12/06 06:25:33;;;;;;;23.75;8.73;;;;;;;-4.30;100.00;100074.28;4895623;29;20060;-64
2021/12/06 06:28:00;;;;;;;26.92;10.27;;;;;;;-4.30;100.00;100076.94;4895504;29;20052;-63
2021/12/06 06:30:26;;;;;;;17.02;6.50;;;;;;;-4.65;100.00;100036.66;4911413;29;20064;-63
2021/12/06 06:32:52;;;;;;;21.13;7.22;;;;;;;-4.39;100.00;100079.84;4912911;29;20060;-63
2021/12/06 06:35:19;;;;;;;19.15;6.07;;;;;;;-4.36;100.00;100082.38;4897791;29;20147;-64
2021/12/06 06:37:45;;;;;;;17.45;6.20;;;;;;;-4.45;100.00;100074.78;4901581;29;20190;-63
2021/12/06 06:40:11;;;;;;;19.38;7.00;;;;;;;-4.41;100.00;100076.41;4878303;29;20599;-64
2021/12/06 06:42:38;;;;;;;20.20;7.82;;;;;;;-4.59;100.00;100062.00;4899909;29;20063;-64
2021/12/06 06:45:05;;;;;;;19.77;6.60;;;;;;;-4.51;100.00;100088.13;4910569;29;20052;-63
2021/12/06 06:47:31;;;;;;;20.42;6.88;;;;;;;-4.78;100.00;100053.75;4912763;29;20056;-64
2021/12/06 06:49:56;;;;;;;18.70;8.70;;;;;;;-4.56;100.00;100103.25;4913127;29;20161;-65
2021/12/06 06:52:22;;;;;;;19.40;7.05;;;;;;;-4.61;100.00;100096.34;4898210;29;20068;-65
2021/12/06 06:54:48;;;;;;;20.00;7.20;;;;;;;-4.58;100.00;100090.09;4899466;29;20131;-64
2021/12/06 06:57:14;;;;;;;25.33;6.82;;;;;;;-4.55;100.00;100108.47;4914165;29;20055;-63
2021/12/06 06:59:40;;;;;;;10.88;3.78;;;;;;;-4.65;100.00;100093.81;4912602;29;20056;-64
2021/12/06 07:02:08;;;;;;;16.85;5.47;;;;;;;-4.66;100.00;100102.66;4906246;29;20105;-64
2021/12/06 07:04:34;;;;;;;23.05;8.20;;;;;;;-4.72;100.00;100116.84;4889263;29;20060;-63
2021/12/06 07:07:00;;;;;;;16.15;6.10;;;;;;;-4.73;100.00;100101.94;4898021;29;20104;-64
2021/12/06 07:09:26;;;;;;;20.38;8.35;;;;;;;-4.81;100.00;100103.94;4904224;29;20113;-63
2021/12/06 07:11:52;;;;;;;21.38;7.80;;;;;;;-4.78;100.00;100114.41;4894341;29;20068;-64
2021/12/06 07:14:18;;;;;;;19.55;7.72;;;;;;;-4.77;100.00;100131.09;4882512;29;20064;-64
2021/12/06 07:16:46;;;;;;;25.52;11.98;;;;;;;-4.80;100.00;100110.94;4895123;29;20161;-64
2021/12/06 07:19:12;;;;;;;21.15;8.55;;;;;;;-4.94;100.00;100098.16;4905250;29;20049;-64
2021/12/06 07:21:38;;;;;;;23.55;10.00;;;;;;;-4.78;100.00;100113.56;4897322;29;20080;-64
2021/12/06 07:24:04;;;;;;;23.58;8.82;;;;;;;-4.78;100.00;100114.41;4909958;29;20052;-64
2021/12/06 07:26:30;;;;;;;29.80;12.27;;;;;;;-4.85;100.00;100107.59;4911247;29;20061;-65
2021/12/06 07:28:56;;;;;;;30.00;13.35;;;;;;;-4.87;100.00;100110.25;4883784;29;20071;-65
2021/12/06 07:31:23;;;;;;;26.25;9.88;;;;;;;-4.76;100.00;100120.50;4874820;29;20077;-64
2021/12/06 07:33:51;;;;;;;25.90;9.18;;;;;;;-4.67;100.00;100130.78;4878305;29;20065;-65
2021/12/06 07:36:19;;;;;;;30.70;11.85;;;;;;;-4.73;100.00;100128.31;4911040;29;20605;-65
2021/12/06 07:38:45;;;;;;;28.88;11.02;;;;;;;-4.86;100.00;100121.69;4910468;29;20060;-65
2021/12/06 07:41:16;;;;;;;30.30;11.80;;;;;;;-4.76;100.00;100138.94;4883516;29;20104;-64
2021/12/06 07:43:42;;;;;;;30.70;10.63;;;;;;;-4.84;100.00;100127.75;4903827;29;20075;-66
2021/12/06 07:46:09;;;;;;;33.60;11.25;;;;;;;-4.78;100.00;100130.25;4912674;29;20467;-66
2021/12/06 07:48:35;;;;;;;32.40;14.05;;;;;;;-4.95;100.00;100121.94;4914099;29;20063;-66
2021/12/06 07:51:01;;;;;;;27.85;10.45;;;;;;;-4.82;100.00;100128.59;4903264;29;20117;-66
2021/12/06 07:53:29;;;;;;;34.35;12.20;;;;;;;-4.76;100.00;100130.19;4893267;29;20128;-66
2021/12/06 07:55:56;;;;;;;35.30;10.95;;;;;;;-4.98;100.00;100074.56;4879744;29;20460;-66
2021/12/06 07:58:22;;;;;;;37.15;13.95;;;;;;;-4.84;100.00;100104.03;4904683;29;20478;-66
2021/12/06 08:00:49;;;;;;;35.08;12.23;;;;;;;-4.69;100.00;100119.41;4890448;29;20521;-66
2021/12/06 08:03:17;;;;;;;29.90;11.10;;;;;;;-4.58;100.00;100120.88;4896167;29;20056;-66
2021/12/06 08:05:45;;;;;;;34.90;12.27;;;;;;;-4.59;100.00;100121.81;4896311;29;20112;-66
2021/12/06 08:08:15;;;;;;;34.85;13.68;;;;;;;-4.75;100.00;100130.16;4905210;29;20258;-66
2021/12/06 08:10:46;;;;;;;42.42;14.05;;;;;;;-4.78;100.00;100130.25;4898121;29;20068;-68
2021/12/06 08:13:15;;;;;;;43.03;16.63;;;;;;;-4.74;100.00;100129.25;4913239;29;20067;-67
2021/12/06 08:15:42;;;;;;;29.13;11.45;;;;;;;-4.73;100.00;100127.47;4895557;29;20080;-65
2021/12/06 08:18:08;;;;;;;31.15;10.05;;;;;;;-4.73;100.00;100133.59;4898631;29;20072;-64
2021/12/06 08:20:35;;;;;;;21.58;7.55;;;;;;;-4.73;100.00;100144.16;4893960;29;20066;-66
2021/12/06 08:23:01;;;;;;;36.22;12.68;;;;;;;-4.81;100.00;100150.56;4878697;29;20176;-66
2021/12/06 08:25:27;;;;;;;44.95;15.77;;;;;;;-4.87;100.00;100151.56;4892433;29;20131;-66
2021/12/06 08:27:52;;;;;;;31.33;12.00;;;;;;;-4.82;100.00;100144.41;4910457;29;20148;-65
2021/12/06 08:30:22;;;;;;;15.27;5.70;;;;;;;-5.00;100.00;100114.16;4913199;29;20060;-67
2021/12/06 08:32:54;;;;;;;27.13;9.30;;;;;;;-4.88;100.00;100152.50;4914418;29;20068;-66
2021/12/06 08:35:20;;;;;;;25.25;9.13;;;;;;;-5.07;100.00;100132.81;4916609;29;20397;-66
2021/12/06 08:37:46;;;;;;;34.83;13.02;;;;;;;-4.93;100.00;100172.84;4889737;29;20586;-66
2021/12/06 08:40:14;;;;;;;37.25;13.02;;;;;;;-4.94;100.00;100171.09;4893975;29;20084;-66
2021/12/06 08:42:41;;;;;;;36.38;13.50;;;;;;;-5.00;100.00;100174.78;4892922;29;20049;-66
2021/12/06 08:45:08;;;;;;;31.90;10.32;;;;;;;-4.90;100.00;100180.66;4924999;29;20083;-66
2021/12/06 08:47:34;;;;;;;21.85;7.85;;;;;;;-4.85;100.00;100176.13;4899105;29;20579;-66
2021/12/06 08:50:00;;;;;;;31.73;12.07;;;;;;;-4.99;100.00;100178.28;4907961;29;20062;-66
2021/12/06 08:52:26;;;;;;;22.50;7.72;;;;;;;-5.01;100.00;100161.63;4921481;29;20060;-66
2021/12/06 08:54:52;;;;;;;32.60;12.05;;;;;;;-5.00;100.00;100176.56;4893950;29;20063;-66
2021/12/06 08:57:18;;;;;;;35.95;11.88;;;;;;;-5.11;100.00;100168.94;4882211;29;20139;-66
2021/12/06 08:59:44;;;;;;;32.55;12.70;;;;;;;-5.27;100.00;100142.09;4892366;29;20061;-67
2021/12/06 09:02:09;;;;;;;34.88;13.13;;;;;;;-5.25;100.00;100161.38;4921414;29;20103;-66
2021/12/06 09:04:38;;;;;;;28.60;11.15;;;;;;;-5.15;100.00;100162.03;4896394;29;20120;-66
2021/12/06 09:07:12;;;;;;;30.73;10.25;;;;;;;-5.15;100.00;100177.84;4910420;29;20084;-66
2021/12/06 09:09:47;;;;;;;29.77;10.32;;;;;;;-5.30;100.00;100163.28;4897604;29;20112;-66
2021/12/06 09:12:17;;;;;;;37.92;13.40;;;;;;;-5.44;100.00;100160.13;4910241;29;20155;-66
2021/12/06 09:14:43;;;;;;;34.03;13.02;;;;;;;-5.44;100.00;100175.94;4914933;29;20422;-66
2021/12/06 09:17:09;;;;;;;23.88;7.95;;;;;;;-5.50;100.00;100141.84;4906682;29;20097;-66
2021/12/06 09:19:34;;;;;;;28.77;10.18;;;;;;;-5.40;100.00;100164.41;4896652;29;20426;-66
2021/12/06 09:22:00;;;;;;;32.75;10.45;;;;;;;-5.45;100.00;100158.38;4894392;29;20057;-66
2021/12/06 09:24:26;;;;;;;17.77;6.15;;;;;;;-5.40;100.00;100153.88;4886550;29;20087;-67
2021/12/06 09:26:52;;;;;;;26.80;7.25;;;;;;;-5.32;100.00;100154.53;4893713;29;20060;-66
2021/12/06 09:29:18;;;;;;;24.45;7.35;;;;;;;-5.32;100.00;100154.53;4912075;29;20063;-66
2021/12/06 09:31:45;;;;;;;22.73;7.38;;;;;;;-5.28;100.00;100153.56;4907228;29;20200;-66
2021/12/06 09:34:11;;;;;;;27.85;8.27;;;;;;;-5.19;100.00;100161.22;4895816;29;20519;-66
2021/12/06 09:36:37;;;;;;;32.20;9.32;;;;;;;-5.13;100.00;100176.88;4895430;29;20226;-67
2021/12/06 09:39:05;;;;;;;38.30;13.82;;;;;;;-5.24;100.00;100176.28;4895269;29;20604;-67
2021/12/06 09:41:31;;;;;;;35.22;10.32;;;;;;;-5.20;100.00;100180.56;4902306;29;20463;-66
2021/12/06 09:44:03;;;;;;;34.90;11.85;;;;;;;-5.33;100.00;100152.81;4898011;29;20051;-66
2021/12/06 09:46:34;;;;;;;37.03;11.55;;;;;;;-5.16;100.00;100171.66;4903332;29;20105;-67
2021/12/06 09:49:03;;;;;;;31.45;10.05;;;;;;;-5.07;100.00;100159.19;4894982;29;20131;-66
2021/12/06 09:51:29;;;;;;;33.13;12.50;;;;;;;-5.23;100.00;100167.50;4910514;29;20064;-66
2021/12/06 09:53:57;;;;;;;28.98;9.23;;;;;;;-5.20;100.00;100180.56;4894829;29;20067;-67
2021/12/06 09:56:27;;;;;;;31.83;11.68;;;;;;;-5.28;100.00;100185.16;4895169;29;20139;-67
2021/12/06 09:58:54;;;;;;;29.15;10.85;;;;;;;-5.35;100.00;100176.53;4866769;29;20494;-67
2021/12/06 10:01:24;;;;;;;34.40;12.20;;;;;;;-5.38;100.00;100186.28;4894081;29;20092;-67
2021/12/06 10:03:52;;;;;;;28.45;9.95;;;;;;;-5.58;100.00;100156.06;4897843;29;20194;-67
2021/12/06 10:06:19;;;;;;;34.78;11.75;;;;;;;-5.39;100.00;100174.91;4908587;29;20060;-67
2021/12/06 10:08:47;;;;;;;29.88;10.38;;;;;;;-5.36;100.00;100182.72;4894366;29;20111;-66
2021/12/06 10:11:14;;;;;;;35.58;10.07;;;;;;;-5.32;100.00;100180.88;4894471;29;20119;-66
2021/12/06 10:13:42;;;;;;;28.63;9.73;;;;;;;-5.34;100.00;100174.78;4863580;29;20135;-67
2021/12/06 10:16:10;;;;;;;33.47;10.13;;;;;;;-5.38;100.00;100152.06;4898570;29;20428;-65
2021/12/06 10:18:36;;;;;;;36.45;11.68;;;;;;;-5.18;100.00;100173.50;4874589;29;20062;-66
2021/12/06 10:21:04;;;;;;;39.20;13.98;;;;;;;-5.24;100.00;100173.63;4914153;29;20070;-68
2021/12/06 10:23:30;;;;;;;37.75;10.73;;;;;;;-5.34;100.00;100151.97;4913336;29;20120;-67
2021/12/06 10:25:56;;;;;;;38.38;12.60;;;;;;;-5.38;100.00;100144.16;4900321;29;20059;-66
2021/12/06 10:28:25;;;;;;;35.05;10.27;;;;;;;-5.24;100.00;100162.25;4886538;29;20052;-66
2021/12/06 10:30:56;;;;;;;34.75;11.05;;;;;;;-5.30;100.00;100142.19;4911059;29;20056;-66
2021/12/06 10:33:31;;;;;;;33.58;10.35;;;;;;;-5.06;100.00;100180.22;4914120;29;20052;-67
2021/12/06 10:36:02;;;;;;;42.28;14.27;;;;;;;-5.30;100.00;100151.84;4903338;29;20402;-66
2021/12/06 10:38:33;;;;;;;41.47;13.18;;;;;;;-5.16;100.00;100161.13;4895494;29;20048;-66
2021/12/06 10:41:10;;;;;;;49.55;16.67;;;;;;;-5.23;100.00;100151.69;4895222;29;20056;-66
2021/12/06 10:43:38;;;;;;;39.55;12.90;;;;;;;-5.10;100.00;100166.25;4893931;29;20084;-66
2021/12/06 10:46:05;;;;;;;42.05;13.25;;;;;;;-5.16;100.00;100170.81;4866926;29;20128;-66
2021/12/06 10:48:35;;;;;;;38.92;13.10;;;;;;;-5.14;100.00;100174.28;4876742;29;20059;-66
2021/12/06 10:51:04;;;;;;;41.85;14.50;;;;;;;-5.24;100.00;100157.84;4860987;29;20057;-66
2021/12/06 10:53:40;;;;;;;48.97;15.63;;;;;;;-5.25;100.00;100147.34;4876690;29;20440;-66
2021/12/06 10:56:16;;;;;;;44.80;14.40;;;;;;;-5.34;100.00;100129.97;4860274;29;20452;-66
2021/12/06 10:58:43;;;;;;;42.30;13.25;;;;;;;-5.05;100.00;100183.72;4890856;29;20061;-65
2021/12/06 11:01:13;;;;;;;39.53;12.65;;;;;;;-5.09;100.00;100165.31;4877397;29;20101;-66
2021/12/06 11:03:45;;;;;;;49.15;16.08;;;;;;;-5.05;100.00;100184.56;4897380;29;20139;-67
2021/12/06 11:06:32;;;;;;;40.80;12.85;;;;;;;-4.96;100.00;100179.06;4893327;29;20052;-66
2021/12/06 11:09:01;;;;;;;47.70;18.55;;;;;;;-4.97;100.00;100187.00;4906055;29;20080;-66
2021/12/06 11:11:35;;;;;;;43.63;13.77;;;;;;;-4.90;100.00;100197.38;4879767;29;20431;-67
2021/12/06 11:14:07;;;;;;;49.15;16.45;;;;;;;-5.12;100.00;100161.91;4905671;29;20052;-65
2021/12/06 11:16:44;;;;;;;40.50;13.07;;;;;;;-4.88;100.00;100181.50;4906768;29;20056;-67
2021/12/06 11:19:12;;;;;;;41.80;14.35;;;;;;;-4.85;100.00;100181.41;4891246;29;20052;-66
2021/12/06 11:21:43;;;;;;;37.13;12.52;;;;;;;-4.87;100.00;100173.53;4894094;29;20135;-66
2021/12/06 11:24:16;;;;;;;37.08;13.70;;;;;;;-4.69;100.00;100192.41;4905319;29;20051;-66